sensor_id;sensor_type;location;lat;lon;timestamp;temperature;humidity
23755;DHT22;12057;52.042;6.830;2023-11-19T00:02:17;14.90;99.90
23755;DHT22;12057;52.042;6.830;2023-11-19T00:07:19;14.80;99.90
23755;DHT22;12057;52.042;6.830;2023-11-19T00:12:20;15.00;99.90
23755;DHT22;12057;52.042;6.830;2023-11-19T00:17:21;14.80;99.90
23755;DHT22;12057;52.042;6.830;2023-11-19T00:22:22;15.00;99.90
23755;DHT22;12057;52.042;6.830;2023-11-19T00:27:22;15.30;99.90
23755;DHT22;12057;52.042;6.830;2023-11-19T00:32:23;15.20;99.90
23755;DHT22;12057;52.042;6.830;2023-11-19T00:37:24;15.50;99.90
23755;DHT22;12057;52.042;6.830;2023-11-19T00:42:25;15.40;99.90
23755;DHT22;12057;52.042;6.830;2023-11-19T00:47:26;15.40;99.90
23755;DHT22;12057;52.042;6.830;2023-11-19T00:52:26;15.40;99.90
23755;DHT22;12057;52.042;6.830;2023-11-19T00:57:27;15.40;99.90
23755;DHT22;12057;52.042;6.830;2023-11-19T01:02:28;15.50;99.90
23755;DHT22;12057;52.042;6.830;2023-11-19T01:07:29;15.50;99.90
23755;DHT22;12057;52.042;6.830;2023-11-19T01:12:29;15.70;99.90
23755;DHT22;12057;52.042;6.830;2023-11-19T01:17:36;15.70;99.90
23755;DHT22;12057;52.042;6.830;2023-11-19T01:22:36;15.90;99.90
23755;DHT22;12057;52.042;6.830;2023-11-19T01:27:37;15.70;99.90
23755;DHT22;12057;52.042;6.830;2023-11-19T01:32:39;15.90;99.90
23755;DHT22;12057;52.042;6.830;2023-11-19T01:37:43;15.80;99.90
23755;DHT22;12057;52.042;6.830;2023-11-19T01:42:44;15.80;99.90
23755;DHT22;12057;52.042;6.830;2023-11-19T01:47:44;16.00;99.90
23755;DHT22;12057;52.042;6.830;2023-11-19T01:52:46;16.00;99.90
23755;DHT22;12057;52.042;6.830;2023-11-19T01:57:48;15.90;99.90
23755;DHT22;12057;52.042;6.830;2023-11-19T02:02:50;16.00;99.90
23755;DHT22;12057;52.042;6.830;2023-11-19T02:07:52;16.00;99.90
23755;DHT22;12057;52.042;6.830;2023-11-19T02:12:53;16.10;99.90
23755;DHT22;12057;52.042;6.830;2023-11-19T02:17:55;16.30;99.90
23755;DHT22;12057;52.042;6.830;2023-11-19T02:22:56;16.10;99.90
23755;DHT22;12057;52.042;6.830;2023-11-19T02:27:59;16.10;99.90
23755;DHT22;12057;52.042;6.830;2023-11-19T02:33:01;16.20;99.90
23755;DHT22;12057;52.042;6.830;2023-11-19T02:38:06;16.20;99.90
23755;DHT22;12057;52.042;6.830;2023-11-19T02:43:07;16.00;99.90
23755;DHT22;12057;52.042;6.830;2023-11-19T02:48:11;16.10;99.90
23755;DHT22;12057;52.042;6.830;2023-11-19T02:53:12;16.00;99.90
23755;DHT22;12057;52.042;6.830;2023-11-19T02:58:14;16.00;99.90
23755;DHT22;12057;52.042;6.830;2023-11-19T03:03:20;16.00;99.90
23755;DHT22;12057;52.042;6.830;2023-11-19T03:08:23;16.20;99.90
23755;DHT22;12057;52.042;6.830;2023-11-19T03:13:23;16.00;99.90
23755;DHT22;12057;52.042;6.830;2023-11-19T03:18:24;16.30;99.90
23755;DHT22;12057;52.042;6.830;2023-11-19T03:23:26;16.20;99.90
23755;DHT22;12057;52.042;6.830;2023-11-19T03:28:30;16.10;99.90
23755;DHT22;12057;52.042;6.830;2023-11-19T03:33:31;16.10;99.90
23755;DHT22;12057;52.042;6.830;2023-11-19T03:38:32;16.00;99.90
23755;DHT22;12057;52.042;6.830;2023-11-19T03:43:33;16.00;99.90
23755;DHT22;12057;52.042;6.830;2023-11-19T03:48:34;16.20;99.90
23755;DHT22;12057;52.042;6.830;2023-11-19T03:53:35;16.20;99.90
23755;DHT22;12057;52.042;6.830;2023-11-19T03:58:36;16.00;99.90
23755;DHT22;12057;52.042;6.830;2023-11-19T04:03:40;16.00;99.90
23755;DHT22;12057;52.042;6.830;2023-11-19T04:08:41;15.80;99.90
23755;DHT22;12057;52.042;6.830;2023-11-19T04:13:42;15.50;99.90
23755;DHT22;12057;52.042;6.830;2023-11-19T04:18:43;15.80;99.90
23755;DHT22;12057;52.042;6.830;2023-11-19T04:23:43;15.20;99.90
23755;DHT22;12057;52.042;6.830;2023-11-19T04:28:44;15.40;99.90
23755;DHT22;12057;52.042;6.830;2023-11-19T04:33:45;15.30;99.90
23755;DHT22;12057;52.042;6.830;2023-11-19T04:38:46;15.10;99.90
23755;DHT22;12057;52.042;6.830;2023-11-19T04:43:47;14.90;99.90
23755;DHT22;12057;52.042;6.830;2023-11-19T04:48:48;15.00;99.90
23755;DHT22;12057;52.042;6.830;2023-11-19T04:53:48;15.00;99.90
23755;DHT22;12057;52.042;6.830;2023-11-19T04:58:49;15.00;99.90
23755;DHT22;12057;52.042;6.830;2023-11-19T05:03:51;14.80;99.90
23755;DHT22;12057;52.042;6.830;2023-11-19T05:08:52;14.90;99.90
23755;DHT22;12057;52.042;6.830;2023-11-19T05:13:54;15.00;99.90
23755;DHT22;12057;52.042;6.830;2023-11-19T05:18:55;15.00;99.90
23755;DHT22;12057;52.042;6.830;2023-11-19T05:23:56;14.80;99.90
23755;DHT22;12057;52.042;6.830;2023-11-19T05:28:57;15.00;99.90
23755;DHT22;12057;52.042;6.830;2023-11-19T05:33:58;14.70;99.90
23755;DHT22;12057;52.042;6.830;2023-11-19T05:38:58;14.70;99.90
23755;DHT22;12057;52.042;6.830;2023-11-19T05:43:59;14.90;99.90
23755;DHT22;12057;52.042;6.830;2023-11-19T05:49:00;14.80;99.90
23755;DHT22;12057;52.042;6.830;2023-11-19T05:54:01;14.80;99.90
23755;DHT22;12057;52.042;6.830;2023-11-19T05:59:02;14.80;99.90
23755;DHT22;12057;52.042;6.830;2023-11-19T06:04:16;14.80;99.90
23755;DHT22;12057;52.042;6.830;2023-11-19T06:09:17;14.50;99.90
23755;DHT22;12057;52.042;6.830;2023-11-19T06:14:19;14.70;99.90
23755;DHT22;12057;52.042;6.830;2023-11-19T06:19:19;14.50;99.90
23755;DHT22;12057;52.042;6.830;2023-11-19T06:24:20;14.50;99.90
23755;DHT22;12057;52.042;6.830;2023-11-19T06:29:21;14.30;99.90
23755;DHT22;12057;52.042;6.830;2023-11-19T06:34:22;14.40;99.90
23755;DHT22;12057;52.042;6.830;2023-11-19T06:39:23;14.20;99.90
23755;DHT22;12057;52.042;6.830;2023-11-19T06:44:24;14.40;99.90
23755;DHT22;12057;52.042;6.830;2023-11-19T06:49:25;14.50;99.90
23755;DHT22;12057;52.042;6.830;2023-11-19T06:54:26;14.40;99.90
23755;DHT22;12057;52.042;6.830;2023-11-19T06:59:27;14.20;99.90
23755;DHT22;12057;52.042;6.830;2023-11-19T07:04:28;14.40;99.90
23755;DHT22;12057;52.042;6.830;2023-11-19T07:09:29;14.20;99.90
23755;DHT22;12057;52.042;6.830;2023-11-19T07:14:29;14.40;99.90
23755;DHT22;12057;52.042;6.830;2023-11-19T07:19:30;14.30;99.90
23755;DHT22;12057;52.042;6.830;2023-11-19T07:24:31;14.60;99.90
23755;DHT22;12057;52.042;6.830;2023-11-19T07:29:32;14.70;99.90
23755;DHT22;12057;52.042;6.830;2023-11-19T07:34:33;14.20;99.90
23755;DHT22;12057;52.042;6.830;2023-11-19T07:39:34;14.60;99.90
23755;DHT22;12057;52.042;6.830;2023-11-19T07:44:35;14.80;99.90
23755;DHT22;12057;52.042;6.830;2023-11-19T07:49:37;14.60;99.90
23755;DHT22;12057;52.042;6.830;2023-11-19T07:54:38;14.40;99.90
23755;DHT22;12057;52.042;6.830;2023-11-19T07:59:39;14.70;99.90
23755;DHT22;12057;52.042;6.830;2023-11-19T08:04:40;14.60;99.90
23755;DHT22;12057;52.042;6.830;2023-11-19T08:09:48;14.60;99.90
23755;DHT22;12057;52.042;6.830;2023-11-19T08:14:49;14.60;99.90
23755;DHT22;12057;52.042;6.830;2023-11-19T08:19:50;14.50;99.90
23755;DHT22;12057;52.042;6.830;2023-11-19T08:24:51;14.50;99.90
23755;DHT22;12057;52.042;6.830;2023-11-19T08:29:53;14.70;99.90
23755;DHT22;12057;52.042;6.830;2023-11-19T08:34:56;14.80;99.90
23755;DHT22;12057;52.042;6.830;2023-11-19T08:39:56;14.80;99.90
23755;DHT22;12057;52.042;6.830;2023-11-19T08:44:57;14.90;99.90
23755;DHT22;12057;52.042;6.830;2023-11-19T08:49:58;14.70;99.90
23755;DHT22;12057;52.042;6.830;2023-11-19T08:54:58;14.70;99.90
23755;DHT22;12057;52.042;6.830;2023-11-19T08:59:59;14.70;99.90
23755;DHT22;12057;52.042;6.830;2023-11-19T09:05:00;14.60;99.90
23755;DHT22;12057;52.042;6.830;2023-11-19T09:10:02;14.70;99.90
23755;DHT22;12057;52.042;6.830;2023-11-19T09:15:05;14.90;99.90
23755;DHT22;12057;52.042;6.830;2023-11-19T09:20:07;14.80;99.90
23755;DHT22;12057;52.042;6.830;2023-11-19T09:25:08;14.70;99.90
23755;DHT22;12057;52.042;6.830;2023-11-19T09:30:10;14.90;99.90
23755;DHT22;12057;52.042;6.830;2023-11-19T09:35:14;14.90;99.90
23755;DHT22;12057;52.042;6.830;2023-11-19T09:40:16;15.10;99.90
23755;DHT22;12057;52.042;6.830;2023-11-19T09:45:21;15.30;99.90
23755;DHT22;12057;52.042;6.830;2023-11-19T09:50:21;15.30;99.90
23755;DHT22;12057;52.042;6.830;2023-11-19T09:55:22;15.10;99.90
23755;DHT22;12057;52.042;6.830;2023-11-19T10:00:23;15.40;99.90
23755;DHT22;12057;52.042;6.830;2023-11-19T10:05:24;15.20;99.90
23755;DHT22;12057;52.042;6.830;2023-11-19T10:10:26;15.40;99.90
23755;DHT22;12057;52.042;6.830;2023-11-19T10:15:27;15.40;99.90
23755;DHT22;12057;52.042;6.830;2023-11-19T10:20:28;15.50;99.90
23755;DHT22;12057;52.042;6.830;2023-11-19T10:25:29;15.30;99.90
23755;DHT22;12057;52.042;6.830;2023-11-19T10:30:30;15.20;99.90
23755;DHT22;12057;52.042;6.830;2023-11-19T10:35:36;15.10;99.90
23755;DHT22;12057;52.042;6.830;2023-11-19T10:40:40;15.60;99.90
23755;DHT22;12057;52.042;6.830;2023-11-19T10:45:41;15.60;99.90
23755;DHT22;12057;52.042;6.830;2023-11-19T10:50:43;15.50;99.90
23755;DHT22;12057;52.042;6.830;2023-11-19T10:55:47;15.60;99.90
23755;DHT22;12057;52.042;6.830;2023-11-19T11:00:52;15.30;99.90
23755;DHT22;12057;52.042;6.830;2023-11-19T11:05:54;15.40;99.90
23755;DHT22;12057;52.042;6.830;2023-11-19T11:10:56;15.60;99.90
23755;DHT22;12057;52.042;6.830;2023-11-19T11:15:58;15.60;99.90
23755;DHT22;12057;52.042;6.830;2023-11-19T11:21:09;15.60;99.90
23755;DHT22;12057;52.042;6.830;2023-11-19T11:37:55;15.30;99.90
23755;DHT22;12057;52.042;6.830;2023-11-19T11:47:26;16.00;99.90
23755;DHT22;12057;52.042;6.830;2023-11-19T11:52:26;16.20;99.90
23755;DHT22;12057;52.042;6.830;2023-11-19T11:57:36;16.50;99.90
23755;DHT22;12057;52.042;6.830;2023-11-19T12:02:38;16.40;99.90
23755;DHT22;12057;52.042;6.830;2023-11-19T12:07:38;16.30;99.90
23755;DHT22;12057;52.042;6.830;2023-11-19T12:12:43;16.10;99.90
23755;DHT22;12057;52.042;6.830;2023-11-19T12:17:47;16.20;99.90
23755;DHT22;12057;52.042;6.830;2023-11-19T12:22:52;16.80;99.90
23755;DHT22;12057;52.042;6.830;2023-11-19T12:27:54;16.60;99.90
23755;DHT22;12057;52.042;6.830;2023-11-19T12:32:54;16.70;99.90
23755;DHT22;12057;52.042;6.830;2023-11-19T12:37:55;17.20;99.90
23755;DHT22;12057;52.042;6.830;2023-11-19T12:42:56;17.20;99.90
23755;DHT22;12057;52.042;6.830;2023-11-19T12:48:08;17.10;99.90
23755;DHT22;12057;52.042;6.830;2023-11-19T12:53:10;17.10;99.90
23755;DHT22;12057;52.042;6.830;2023-11-19T12:58:11;16.70;99.90
23755;DHT22;12057;52.042;6.830;2023-11-19T13:03:35;16.50;99.90
23755;DHT22;12057;52.042;6.830;2023-11-19T13:08:49;16.50;99.90
23755;DHT22;12057;52.042;6.830;2023-11-19T13:14:05;16.20;99.90
23755;DHT22;12057;52.042;6.830;2023-11-19T13:19:06;16.10;99.90
23755;DHT22;12057;52.042;6.830;2023-11-19T13:24:07;16.00;99.90
23755;DHT22;12057;52.042;6.830;2023-11-19T13:29:08;15.90;99.90
23755;DHT22;12057;52.042;6.830;2023-11-19T13:34:13;15.90;99.90
23755;DHT22;12057;52.042;6.830;2023-11-19T13:39:14;16.10;99.90
23755;DHT22;12057;52.042;6.830;2023-11-19T13:44:23;16.10;99.90
23755;DHT22;12057;52.042;6.830;2023-11-19T13:49:23;16.10;99.90
23755;DHT22;12057;52.042;6.830;2023-11-19T13:54:25;15.80;99.90
23755;DHT22;12057;52.042;6.830;2023-11-19T13:59:25;15.60;99.90
23755;DHT22;12057;52.042;6.830;2023-11-19T14:04:27;15.80;99.90
23755;DHT22;12057;52.042;6.830;2023-11-19T14:09:28;15.60;99.90
23755;DHT22;12057;52.042;6.830;2023-11-19T14:14:29;15.80;99.90
23755;DHT22;12057;52.042;6.830;2023-11-19T14:19:30;15.80;99.90
23755;DHT22;12057;52.042;6.830;2023-11-19T14:24:31;15.90;99.90
23755;DHT22;12057;52.042;6.830;2023-11-19T14:29:32;16.00;99.90
23755;DHT22;12057;52.042;6.830;2023-11-19T14:34:33;15.90;99.90
23755;DHT22;12057;52.042;6.830;2023-11-19T14:39:33;15.90;99.90
23755;DHT22;12057;52.042;6.830;2023-11-19T14:44:34;15.60;99.90
23755;DHT22;12057;52.042;6.830;2023-11-19T14:49:35;15.50;99.90
23755;DHT22;12057;52.042;6.830;2023-11-19T14:54:37;15.10;99.90
23755;DHT22;12057;52.042;6.830;2023-11-19T14:59:41;14.80;99.90
23755;DHT22;12057;52.042;6.830;2023-11-19T15:04:41;14.90;99.90
23755;DHT22;12057;52.042;6.830;2023-11-19T15:09:44;15.10;99.90
23755;DHT22;12057;52.042;6.830;2023-11-19T15:14:47;15.00;99.90
23755;DHT22;12057;52.042;6.830;2023-11-19T15:19:48;15.00;99.90
23755;DHT22;12057;52.042;6.830;2023-11-19T15:24:50;15.10;99.90
23755;DHT22;12057;52.042;6.830;2023-11-19T15:29:50;15.20;99.90
23755;DHT22;12057;52.042;6.830;2023-11-19T15:34:53;14.90;99.90
23755;DHT22;12057;52.042;6.830;2023-11-19T15:39:53;14.90;99.90
23755;DHT22;12057;52.042;6.830;2023-11-19T15:44:55;14.90;99.90
23755;DHT22;12057;52.042;6.830;2023-11-19T15:49:56;15.10;99.90
23755;DHT22;12057;52.042;6.830;2023-11-19T15:54:57;14.90;99.90
23755;DHT22;12057;52.042;6.830;2023-11-19T15:59:58;14.80;99.90
23755;DHT22;12057;52.042;6.830;2023-11-19T16:04:58;14.90;99.90
23755;DHT22;12057;52.042;6.830;2023-11-19T16:09:59;14.80;99.90
23755;DHT22;12057;52.042;6.830;2023-11-19T16:15:03;14.60;99.90
23755;DHT22;12057;52.042;6.830;2023-11-19T16:20:05;14.80;99.90
23755;DHT22;12057;52.042;6.830;2023-11-19T16:25:07;14.40;99.90
23755;DHT22;12057;52.042;6.830;2023-11-19T16:30:08;14.60;99.90
23755;DHT22;12057;52.042;6.830;2023-11-19T16:35:09;14.60;99.90
23755;DHT22;12057;52.042;6.830;2023-11-19T16:40:11;14.70;99.90
23755;DHT22;12057;52.042;6.830;2023-11-19T16:45:12;14.80;99.90
23755;DHT22;12057;52.042;6.830;2023-11-19T16:50:14;14.90;99.90
23755;DHT22;12057;52.042;6.830;2023-11-19T16:55:19;15.00;99.90
23755;DHT22;12057;52.042;6.830;2023-11-19T17:00:22;15.10;99.90
23755;DHT22;12057;52.042;6.830;2023-11-19T17:05:23;15.20;99.90
23755;DHT22;12057;52.042;6.830;2023-11-19T17:10:24;15.00;99.90
23755;DHT22;12057;52.042;6.830;2023-11-19T17:15:25;14.70;99.90
23755;DHT22;12057;52.042;6.830;2023-11-19T17:20:25;14.80;99.90
23755;DHT22;12057;52.042;6.830;2023-11-19T17:25:26;14.70;99.90
23755;DHT22;12057;52.042;6.830;2023-11-19T17:30:27;15.00;99.90
23755;DHT22;12057;52.042;6.830;2023-11-19T17:35:28;14.80;99.90
23755;DHT22;12057;52.042;6.830;2023-11-19T17:40:32;14.90;99.90
23755;DHT22;12057;52.042;6.830;2023-11-19T17:45:33;14.80;99.90
23755;DHT22;12057;52.042;6.830;2023-11-19T17:50:36;14.60;99.90
23755;DHT22;12057;52.042;6.830;2023-11-19T17:55:37;14.50;99.90
23755;DHT22;12057;52.042;6.830;2023-11-19T18:00:38;14.50;99.90
23755;DHT22;12057;52.042;6.830;2023-11-19T18:05:40;14.80;99.90
23755;DHT22;12057;52.042;6.830;2023-11-19T18:10:41;14.60;99.90
23755;DHT22;12057;52.042;6.830;2023-11-19T18:15:43;14.50;99.90
23755;DHT22;12057;52.042;6.830;2023-11-19T18:20:43;14.70;99.90
23755;DHT22;12057;52.042;6.830;2023-11-19T18:25:44;14.60;99.90
23755;DHT22;12057;52.042;6.830;2023-11-19T18:30:47;14.50;99.90
23755;DHT22;12057;52.042;6.830;2023-11-19T18:35:47;14.40;99.90
23755;DHT22;12057;52.042;6.830;2023-11-19T18:40:48;14.50;99.90
23755;DHT22;12057;52.042;6.830;2023-11-19T18:45:49;14.60;99.90
23755;DHT22;12057;52.042;6.830;2023-11-19T18:50:50;14.60;99.90
23755;DHT22;12057;52.042;6.830;2023-11-19T18:55:52;14.60;99.90
23755;DHT22;12057;52.042;6.830;2023-11-19T19:00:53;14.50;99.90
23755;DHT22;12057;52.042;6.830;2023-11-19T19:05:54;14.70;99.90
23755;DHT22;12057;52.042;6.830;2023-11-19T19:10:55;14.50;99.90
23755;DHT22;12057;52.042;6.830;2023-11-19T19:15:56;14.60;99.90
23755;DHT22;12057;52.042;6.830;2023-11-19T19:20:57;14.70;99.90
23755;DHT22;12057;52.042;6.830;2023-11-19T19:25:58;14.30;99.90
23755;DHT22;12057;52.042;6.830;2023-11-19T19:30:58;14.40;99.90
23755;DHT22;12057;52.042;6.830;2023-11-19T19:36:00;14.50;99.90
23755;DHT22;12057;52.042;6.830;2023-11-19T19:41:03;14.30;99.90
23755;DHT22;12057;52.042;6.830;2023-11-19T19:46:05;14.50;99.90
23755;DHT22;12057;52.042;6.830;2023-11-19T19:51:12;14.40;99.90
23755;DHT22;12057;52.042;6.830;2023-11-19T19:56:13;14.10;99.90
23755;DHT22;12057;52.042;6.830;2023-11-19T20:01:15;14.10;99.90
23755;DHT22;12057;52.042;6.830;2023-11-19T20:06:16;14.40;99.90
23755;DHT22;12057;52.042;6.830;2023-11-19T20:11:17;14.50;99.90
23755;DHT22;12057;52.042;6.830;2023-11-19T20:16:18;14.30;99.90
23755;DHT22;12057;52.042;6.830;2023-11-19T20:21:18;14.30;99.90
23755;DHT22;12057;52.042;6.830;2023-11-19T20:26:19;14.30;99.90
23755;DHT22;12057;52.042;6.830;2023-11-19T20:31:22;14.50;99.90
23755;DHT22;12057;52.042;6.830;2023-11-19T20:36:22;14.60;99.90
23755;DHT22;12057;52.042;6.830;2023-11-19T20:41:23;14.30;99.90
23755;DHT22;12057;52.042;6.830;2023-11-19T20:46:25;14.30;99.90
23755;DHT22;12057;52.042;6.830;2023-11-19T20:51:26;14.40;99.90
23755;DHT22;12057;52.042;6.830;2023-11-19T20:56:27;14.40;99.90
23755;DHT22;12057;52.042;6.830;2023-11-19T21:01:28;14.20;99.90
23755;DHT22;12057;52.042;6.830;2023-11-19T21:06:28;14.20;99.90
23755;DHT22;12057;52.042;6.830;2023-11-19T21:11:29;14.30;99.90
23755;DHT22;12057;52.042;6.830;2023-11-19T21:16:30;14.50;99.90
23755;DHT22;12057;52.042;6.830;2023-11-19T21:21:31;14.50;99.90
23755;DHT22;12057;52.042;6.830;2023-11-19T21:26:32;14.40;99.90
23755;DHT22;12057;52.042;6.830;2023-11-19T21:31:33;14.30;99.90
23755;DHT22;12057;52.042;6.830;2023-11-19T21:36:35;14.50;99.90
23755;DHT22;12057;52.042;6.830;2023-11-19T21:41:36;14.30;99.90
23755;DHT22;12057;52.042;6.830;2023-11-19T21:46:40;14.50;99.90
23755;DHT22;12057;52.042;6.830;2023-11-19T21:51:42;14.50;99.90
23755;DHT22;12057;52.042;6.830;2023-11-19T21:56:42;14.50;99.90
23755;DHT22;12057;52.042;6.830;2023-11-19T22:01:43;14.50;99.90
23755;DHT22;12057;52.042;6.830;2023-11-19T22:06:45;14.50;99.90
23755;DHT22;12057;52.042;6.830;2023-11-19T22:11:45;14.40;99.90
23755;DHT22;12057;52.042;6.830;2023-11-19T22:16:47;14.20;99.90
23755;DHT22;12057;52.042;6.830;2023-11-19T22:21:48;14.30;99.90
23755;DHT22;12057;52.042;6.830;2023-11-19T22:26:49;14.40;99.90
23755;DHT22;12057;52.042;6.830;2023-11-19T22:31:49;14.30;99.90
23755;DHT22;12057;52.042;6.830;2023-11-19T22:36:53;14.40;99.90
23755;DHT22;12057;52.042;6.830;2023-11-19T22:41:55;14.50;99.90
23755;DHT22;12057;52.042;6.830;2023-11-19T22:47:01;14.40;99.90
23755;DHT22;12057;52.042;6.830;2023-11-19T22:52:05;14.40;99.90
23755;DHT22;12057;52.042;6.830;2023-11-19T22:57:16;14.50;99.90
23755;DHT22;12057;52.042;6.830;2023-11-19T23:02:28;14.70;99.90
23755;DHT22;12057;52.042;6.830;2023-11-19T23:07:35;14.40;99.90
23755;DHT22;12057;52.042;6.830;2023-11-19T23:13:06;14.40;99.90
23755;DHT22;12057;52.042;6.830;2023-11-19T23:18:07;14.60;99.90
23755;DHT22;12057;52.042;6.830;2023-11-19T23:23:08;14.80;99.90
23755;DHT22;12057;52.042;6.830;2023-11-19T23:28:09;14.80;99.90
23755;DHT22;12057;52.042;6.830;2023-11-19T23:33:10;14.80;99.90
23755;DHT22;12057;52.042;6.830;2023-11-19T23:38:11;14.80;99.90
23755;DHT22;12057;52.042;6.830;2023-11-19T23:43:12;14.90;99.90
23755;DHT22;12057;52.042;6.830;2023-11-19T23:48:13;14.60;99.90
23755;DHT22;12057;52.042;6.830;2023-11-19T23:53:14;14.40;99.90
23755;DHT22;12057;52.042;6.830;2023-11-19T23:58:15;14.60;99.90
